sensor_id;sensor_type;location;lat;lon;timestamp;pressure;altitude;pressure_sealevel;temperature;humidity
73103;BME280;61294;65.988;29.172;2023-10-08T00:02:25;96781.84;;;-0.83;100.00
73103;BME280;61294;65.988;29.172;2023-10-08T00:04:52;96796.53;;;-0.79;100.00
73103;BME280;61294;65.988;29.172;2023-10-08T00:07:21;96803.50;;;-0.73;100.00
73103;BME280;61294;65.988;29.172;2023-10-08T00:09:50;96813.84;;;-0.73;100.00
73103;BME280;61294;65.988;29.172;2023-10-08T00:12:17;96794.72;;;-0.88;100.00
73103;BME280;61294;65.988;29.172;2023-10-08T00:14:47;96778.28;;;-0.94;100.00
73103;BME280;61294;65.988;29.172;2023-10-08T00:17:18;96786.13;;;-0.87;100.00
73103;BME280;61294;65.988;29.172;2023-10-08T00:19:44;96809.56;;;-0.73;100.00
73103;BME280;61294;65.988;29.172;2023-10-08T00:22:11;96811.34;;;-0.65;100.00
73103;BME280;61294;65.988;29.172;2023-10-08T00:24:41;96793.97;;;-0.77;100.00
73103;BME280;61294;65.988;29.172;2023-10-08T00:27:17;96818.19;;;-0.67;100.00
73103;BME280;61294;65.988;29.172;2023-10-08T00:29:43;96791.38;;;-0.79;100.00
73103;BME280;61294;65.988;29.172;2023-10-08T00:32:18;96800.91;;;-0.73;100.00
73103;BME280;61294;65.988;29.172;2023-10-08T00:34:44;96817.31;;;-0.71;100.00
73103;BME280;61294;65.988;29.172;2023-10-08T00:37:12;96804.28;;;-0.82;100.00
73103;BME280;61294;65.988;29.172;2023-10-08T00:39:41;96808.59;;;-0.81;100.00
73103;BME280;61294;65.988;29.172;2023-10-08T00:42:07;96820.63;;;-0.81;100.00
73103;BME280;61294;65.988;29.172;2023-10-08T00:44:36;96797.25;;;-0.94;100.00
73103;BME280;61294;65.988;29.172;2023-10-08T00:47:16;96798.94;;;-0.97;100.00
73103;BME280;61294;65.988;29.172;2023-10-08T00:49:43;96844.06;;;-0.66;100.00
73103;BME280;61294;65.988;29.172;2023-10-08T00:52:11;96826.69;;;-0.81;100.00
73103;BME280;61294;65.988;29.172;2023-10-08T00:54:40;96836.22;;;-0.77;100.00
73103;BME280;61294;65.988;29.172;2023-10-08T00:57:33;96850.06;;;-0.70;100.00
73103;BME280;61294;65.988;29.172;2023-10-08T01:00:04;96854.38;;;-0.71;100.00
73103;BME280;61294;65.988;29.172;2023-10-08T01:02:32;96845.69;;;-0.74;100.00
73103;BME280;61294;65.988;29.172;2023-10-08T01:05:13;96846.56;;;-0.77;100.00
73103;BME280;61294;65.988;29.172;2023-10-08T01:07:45;96864.84;;;-0.60;100.00
73103;BME280;61294;65.988;29.172;2023-10-08T01:10:14;96849.19;;;-0.72;100.00
73103;BME280;61294;65.988;29.172;2023-10-08T01:12:45;96840.47;;;-0.80;100.00
73103;BME280;61294;65.988;29.172;2023-10-08T01:15:21;96875.13;;;-0.63;100.00
73103;BME280;61294;65.988;29.172;2023-10-08T01:17:53;96845.56;;;-0.88;100.00
73103;BME280;61294;65.988;29.172;2023-10-08T01:20:30;96886.25;;;-0.70;100.00
73103;BME280;61294;65.988;29.172;2023-10-08T01:23:04;96889.72;;;-0.70;100.00
73103;BME280;61294;65.988;29.172;2023-10-08T01:25:30;96891.41;;;-0.73;100.00
73103;BME280;61294;65.988;29.172;2023-10-08T01:27:56;96891.34;;;-0.78;100.00
73103;BME280;61294;65.988;29.172;2023-10-08T01:30:26;96888.78;;;-0.78;100.00
73103;BME280;61294;65.988;29.172;2023-10-08T01:32:52;96897.41;;;-0.74;100.00
73103;BME280;61294;65.988;29.172;2023-10-08T01:35:28;96883.53;;;-0.85;100.00
73103;BME280;61294;65.988;29.172;2023-10-08T01:37:57;96893.94;;;-0.79;100.00
73103;BME280;61294;65.988;29.172;2023-10-08T01:40:27;96895.63;;;-0.80;100.00
73103;BME280;61294;65.988;29.172;2023-10-08T01:42:55;96908.59;;;-0.78;100.00
73103;BME280;61294;65.988;29.172;2023-10-08T01:45:25;96905.13;;;-0.79;100.00
73103;BME280;61294;65.988;29.172;2023-10-08T01:47:51;96915.47;;;-0.77;100.00
73103;BME280;61294;65.988;29.172;2023-10-08T01:50:21;96915.47;;;-0.77;100.00
73103;BME280;61294;65.988;29.172;2023-10-08T01:52:50;96892.00;;;-0.94;100.00
73103;BME280;61294;65.988;29.172;2023-10-08T01:55:19;96925.03;;;-0.72;100.00
73103;BME280;61294;65.988;29.172;2023-10-08T01:57:50;96913.00;;;-0.71;100.00
73103;BME280;61294;65.988;29.172;2023-10-08T02:00:19;96887.78;;;-0.88;100.00
73103;BME280;61294;65.988;29.172;2023-10-08T02:02:49;96919.00;;;-0.71;100.00
73103;BME280;61294;65.988;29.172;2023-10-08T02:05:19;96905.88;;;-0.89;100.00
73103;BME280;61294;65.988;29.172;2023-10-08T02:07:45;96911.19;;;-0.78;100.00
73103;BME280;61294;65.988;29.172;2023-10-08T02:10:11;96901.63;;;-0.84;100.00
73103;BME280;61294;65.988;29.172;2023-10-08T02:12:40;96942.31;;;-0.69;100.00
73103;BME280;61294;65.988;29.172;2023-10-08T02:15:07;96935.41;;;-0.68;100.00
73103;BME280;61294;65.988;29.172;2023-10-08T02:17:34;96944.88;;;-0.69;100.00
73103;BME280;61294;65.988;29.172;2023-10-08T02:20:00;96926.66;;;-0.80;100.00
73103;BME280;61294;65.988;29.172;2023-10-08T02:22:31;96949.97;;;-0.78;100.00
73103;BME280;61294;65.988;29.172;2023-10-08T02:24:57;96919.56;;;-0.96;100.00
73103;BME280;61294;65.988;29.172;2023-10-08T02:27:27;96891.75;;;-1.16;100.00
73103;BME280;61294;65.988;29.172;2023-10-08T02:29:53;96954.22;;;-0.80;100.00
73103;BME280;61294;65.988;29.172;2023-10-08T02:32:21;96958.59;;;-0.76;100.00
73103;BME280;61294;65.988;29.172;2023-10-08T02:34:48;96911.75;;;-1.02;100.00
73103;BME280;61294;65.988;29.172;2023-10-08T02:37:16;96919.53;;;-0.99;100.00
73103;BME280;61294;65.988;29.172;2023-10-08T02:39:41;96949.06;;;-0.80;100.00
73103;BME280;61294;65.988;29.172;2023-10-08T02:42:08;96953.38;;;-0.81;100.00
73103;BME280;61294;65.988;29.172;2023-10-08T02:44:36;96968.06;;;-0.77;100.00
73103;BME280;61294;65.988;29.172;2023-10-08T02:47:13;96961.97;;;-0.82;100.00
73103;BME280;61294;65.988;29.172;2023-10-08T02:49:47;96966.25;;;-0.84;100.00
73103;BME280;61294;65.988;29.172;2023-10-08T02:52:18;96983.56;;;-0.78;100.00
73103;BME280;61294;65.988;29.172;2023-10-08T02:54:45;96922.75;;;-1.16;100.00
73103;BME280;61294;65.988;29.172;2023-10-08T02:57:11;96988.59;;;-0.89;100.00
73103;BME280;61294;65.988;29.172;2023-10-08T02:59:42;96951.34;;;-1.05;100.00
73103;BME280;61294;65.988;29.172;2023-10-08T03:02:09;96964.31;;;-1.00;100.00
73103;BME280;61294;65.988;29.172;2023-10-08T03:04:45;97003.28;;;-0.87;100.00
73103;BME280;61294;65.988;29.172;2023-10-08T03:07:14;96950.25;;;-1.21;100.00
73103;BME280;61294;65.988;29.172;2023-10-08T03:09:53;96982.31;;;-1.07;100.00
73103;BME280;61294;65.988;29.172;2023-10-08T03:12:53;96984.88;;;-1.10;100.00
73103;BME280;61294;65.988;29.172;2023-10-08T03:15:19;97027.31;;;-0.94;100.00
73103;BME280;61294;65.988;29.172;2023-10-08T03:17:55;96982.22;;;-1.11;100.00
73103;BME280;61294;65.988;29.172;2023-10-08T03:20:23;97012.59;;;-0.98;100.00
73103;BME280;61294;65.988;29.172;2023-10-08T03:23:06;97013.41;;;-1.00;100.00
73103;BME280;61294;65.988;29.172;2023-10-08T03:25:55;97004.72;;;-1.06;100.00
73103;BME280;61294;65.988;29.172;2023-10-08T03:28:44;97034.88;;;-1.05;100.00
73103;BME280;61294;65.988;29.172;2023-10-08T03:31:10;97042.66;;;-1.05;100.00
73103;BME280;61294;65.988;29.172;2023-10-08T03:33:42;97043.56;;;-1.02;100.00
73103;BME280;61294;65.988;29.172;2023-10-08T03:36:09;97053.00;;;-1.03;100.00
73103;BME280;61294;65.988;29.172;2023-10-08T03:38:39;96996.75;;;-1.23;100.00
73103;BME280;61294;65.988;29.172;2023-10-08T03:41:22;97046.19;;;-0.98;100.00
73103;BME280;61294;65.988;29.172;2023-10-08T03:43:53;97008.81;;;-1.20;100.00
73103;BME280;61294;65.988;29.172;2023-10-08T03:46:28;97048.88;;;-0.92;100.00
73103;BME280;61294;65.988;29.172;2023-10-08T03:48:54;97046.25;;;-0.95;100.00
73103;BME280;61294;65.988;29.172;2023-10-08T03:51:23;97001.09;;;-1.18;100.00
73103;BME280;61294;65.988;29.172;2023-10-08T03:53:53;97056.59;;;-0.93;100.00
73103;BME280;61294;65.988;29.172;2023-10-08T03:56:26;97065.91;;;-1.03;100.00
73103;BME280;61294;65.988;29.172;2023-10-08T03:58:55;97069.44;;;-0.99;100.00
73103;BME280;61294;65.988;29.172;2023-10-08T04:01:22;97037.34;;;-1.14;100.00
73103;BME280;61294;65.988;29.172;2023-10-08T04:03:49;97068.66;;;-0.95;100.00
73103;BME280;61294;65.988;29.172;2023-10-08T04:06:20;97053.00;;;-1.03;100.00
73103;BME280;61294;65.988;29.172;2023-10-08T04:08:55;97064.22;;;-1.02;100.00
73103;BME280;61294;65.988;29.172;2023-10-08T04:11:41;97078.03;;;-1.00;100.00
73103;BME280;61294;65.988;29.172;2023-10-08T04:14:28;97045.91;;;-1.16;100.00
73103;BME280;61294;65.988;29.172;2023-10-08T04:16:55;97048.53;;;-1.13;100.00
73103;BME280;61294;65.988;29.172;2023-10-08T04:19:22;97071.97;;;-1.02;100.00
73103;BME280;61294;65.988;29.172;2023-10-08T04:21:56;97068.47;;;-1.06;100.00
73103;BME280;61294;65.988;29.172;2023-10-08T04:24:23;97092.66;;;-1.02;100.00
73103;BME280;61294;65.988;29.172;2023-10-08T04:26:55;97090.13;;;-0.99;100.00
73103;BME280;61294;65.988;29.172;2023-10-08T04:29:25;97086.75;;;-0.94;100.00
73103;BME280;61294;65.988;29.172;2023-10-08T04:31:52;97057.13;;;-1.14;100.00
73103;BME280;61294;65.988;29.172;2023-10-08T04:34:28;97083.22;;;-0.99;100.00
73103;BME280;61294;65.988;29.172;2023-10-08T04:36:55;97046.69;;;-1.22;100.00
73103;BME280;61294;65.988;29.172;2023-10-08T04:39:23;97097.97;;;-0.92;100.00
73103;BME280;61294;65.988;29.172;2023-10-08T04:41:59;97068.41;;;-1.09;100.00
73103;BME280;61294;65.988;29.172;2023-10-08T04:44:31;97104.94;;;-0.88;100.00
73103;BME280;61294;65.988;29.172;2023-10-08T04:46:57;97110.09;;;-0.88;100.00
73103;BME280;61294;65.988;29.172;2023-10-08T04:49:30;97099.69;;;-0.92;100.00
73103;BME280;61294;65.988;29.172;2023-10-08T04:52:06;97102.28;;;-0.92;100.00
73103;BME280;61294;65.988;29.172;2023-10-08T04:54:40;97115.25;;;-0.89;100.00
73103;BME280;61294;65.988;29.172;2023-10-08T04:57:07;97081.47;;;-1.00;100.00
73103;BME280;61294;65.988;29.172;2023-10-08T04:59:41;97101.50;;;-0.88;100.00
73103;BME280;61294;65.988;29.172;2023-10-08T05:02:08;97118.78;;;-0.85;100.00
73103;BME280;61294;65.988;29.172;2023-10-08T05:04:40;97103.16;;;-0.92;100.00
73103;BME280;61294;65.988;29.172;2023-10-08T05:07:31;97117.94;;;-0.83;100.00
73103;BME280;61294;65.988;29.172;2023-10-08T05:10:14;97122.28;;;-0.80;100.00
73103;BME280;61294;65.988;29.172;2023-10-08T05:12:49;97126.63;;;-0.79;100.00
73103;BME280;61294;65.988;29.172;2023-10-08T05:15:31;97128.31;;;-0.80;100.00
73103;BME280;61294;65.988;29.172;2023-10-08T05:18:23;97135.19;;;-0.82;100.00
73103;BME280;61294;65.988;29.172;2023-10-08T05:21:03;97134.41;;;-0.76;100.00
73103;BME280;61294;65.988;29.172;2023-10-08T05:23:48;97100.44;;;-1.01;100.00
73103;BME280;61294;65.988;29.172;2023-10-08T05:26:37;97126.59;;;-0.81;100.00
73103;BME280;61294;65.988;29.172;2023-10-08T05:29:08;97140.53;;;-0.73;100.00
73103;BME280;61294;65.988;29.172;2023-10-08T05:31:53;97146.56;;;-0.71;100.00
73103;BME280;61294;65.988;29.172;2023-10-08T05:34:38;97142.22;;;-0.72;100.00
73103;BME280;61294;65.988;29.172;2023-10-08T05:37:25;97143.00;;;-0.77;100.00
73103;BME280;61294;65.988;29.172;2023-10-08T05:40:02;97140.41;;;-0.77;100.00
73103;BME280;61294;65.988;29.172;2023-10-08T05:42:43;97136.03;;;-0.81;100.00
73103;BME280;61294;65.988;29.172;2023-10-08T05:45:12;97142.16;;;-0.78;100.00
73103;BME280;61294;65.988;29.172;2023-10-08T05:47:38;97133.44;;;-0.83;100.00
73103;BME280;61294;65.988;29.172;2023-10-08T05:50:07;97156.13;;;-0.65;100.00
73103;BME280;61294;65.988;29.172;2023-10-08T05:52:45;97157.06;;;-0.61;100.00
73103;BME280;61294;65.988;29.172;2023-10-08T05:55:24;97143.00;;;-0.79;100.00
73103;BME280;61294;65.988;29.172;2023-10-08T05:58:02;97173.38;;;-0.67;100.00
73103;BME280;61294;65.988;29.172;2023-10-08T06:00:46;97181.28;;;-0.55;100.00
73103;BME280;61294;65.988;29.172;2023-10-08T06:03:15;97173.59;;;-0.50;100.00
73103;BME280;61294;65.988;29.172;2023-10-08T06:06:08;97175.38;;;-0.46;100.00
73103;BME280;61294;65.988;29.172;2023-10-08T06:08:40;97171.91;;;-0.48;100.00
73103;BME280;61294;65.988;29.172;2023-10-08T06:11:25;97176.38;;;-0.38;100.00
73103;BME280;61294;65.988;29.172;2023-10-08T06:14:09;97179.81;;;-0.37;100.00
73103;BME280;61294;65.988;29.172;2023-10-08T06:16:43;97185.94;;;-0.33;100.00
73103;BME280;61294;65.988;29.172;2023-10-08T06:19:15;97186.75;;;-0.35;100.00
73103;BME280;61294;65.988;29.172;2023-10-08T06:21:42;97193.66;;;-0.35;100.00
73103;BME280;61294;65.988;29.172;2023-10-08T06:24:09;97191.94;;;-0.35;100.00
73103;BME280;61294;65.988;29.172;2023-10-08T06:26:38;97198.09;;;-0.26;100.00
73103;BME280;61294;65.988;29.172;2023-10-08T06:29:11;97196.34;;;-0.29;100.00
73103;BME280;61294;65.988;29.172;2023-10-08T06:31:54;97198.16;;;-0.23;100.00
73103;BME280;61294;65.988;29.172;2023-10-08T06:34:22;97198.13;;;-0.25;100.00
73103;BME280;61294;65.988;29.172;2023-10-08T06:36:50;97211.97;;;-0.23;100.00
73103;BME280;61294;65.988;29.172;2023-10-08T06:39:21;97208.59;;;-0.17;100.00
73103;BME280;61294;65.988;29.172;2023-10-08T06:41:52;97209.38;;;-0.23;100.00
73103;BME280;61294;65.988;29.172;2023-10-08T06:44:19;97208.44;;;-0.28;100.00
73103;BME280;61294;65.988;29.172;2023-10-08T06:46:44;97218.97;;;-0.17;100.00
73103;BME280;61294;65.988;29.172;2023-10-08T06:49:11;97216.47;;;-0.09;100.00
73103;BME280;61294;65.988;29.172;2023-10-08T06:51:40;97226.91;;;-0.02;100.00
73103;BME280;61294;65.988;29.172;2023-10-08T06:54:10;97217.41;;;-0.06;100.00
73103;BME280;61294;65.988;29.172;2023-10-08T06:56:39;97225.09;;;-0.09;100.00
73103;BME280;61294;65.988;29.172;2023-10-08T06:59:14;97223.47;;;-0.02;100.00
73103;BME280;61294;65.988;29.172;2023-10-08T07:01:42;97217.50;;;0.04;100.00
73103;BME280;61294;65.988;29.172;2023-10-08T07:04:12;97230.47;;;0.05;100.00
73103;BME280;61294;65.988;29.172;2023-10-08T07:06:39;97234.84;;;0.09;100.00
73103;BME280;61294;65.988;29.172;2023-10-08T07:09:06;97231.31;;;0.06;100.00
73103;BME280;61294;65.988;29.172;2023-10-08T07:11:39;97247.00;;;0.13;100.00
73103;BME280;61294;65.988;29.172;2023-10-08T07:14:09;97250.47;;;0.15;100.00
73103;BME280;61294;65.988;29.172;2023-10-08T07:16:36;97252.22;;;0.16;100.00
73103;BME280;61294;65.988;29.172;2023-10-08T07:19:02;97255.59;;;0.12;100.00
73103;BME280;61294;65.988;29.172;2023-10-08T07:21:29;97246.09;;;0.11;100.00
73103;BME280;61294;65.988;29.172;2023-10-08T07:23:56;97266.88;;;0.16;100.00
73103;BME280;61294;65.988;29.172;2023-10-08T07:26:23;97272.19;;;0.27;100.00
73103;BME280;61294;65.988;29.172;2023-10-08T07:29:02;97273.91;;;0.25;100.00
73103;BME280;61294;65.988;29.172;2023-10-08T07:31:34;97280.75;;;0.21;100.00
73103;BME280;61294;65.988;29.172;2023-10-08T07:34:02;97260.06;;;0.24;100.00
73103;BME280;61294;65.988;29.172;2023-10-08T07:36:42;97283.59;;;0.41;100.00
73103;BME280;61294;65.988;29.172;2023-10-08T07:39:09;97281.13;;;0.47;100.00
73103;BME280;61294;65.988;29.172;2023-10-08T07:41:48;97289.75;;;0.48;100.00
73103;BME280;61294;65.988;29.172;2023-10-08T07:44:15;97288.97;;;0.55;100.00
73103;BME280;61294;65.988;29.172;2023-10-08T07:46:40;97294.91;;;0.45;100.00
73103;BME280;61294;65.988;29.172;2023-10-08T07:49:06;97298.34;;;0.45;100.00
73103;BME280;61294;65.988;29.172;2023-10-08T07:51:32;97297.56;;;0.51;100.00
73103;BME280;61294;65.988;29.172;2023-10-08T07:53:58;97283.81;;;0.57;100.00
73103;BME280;61294;65.988;29.172;2023-10-08T07:56:25;97267.28;;;0.48;100.00
73103;BME280;61294;65.988;29.172;2023-10-08T07:58:54;97301.97;;;0.57;100.00
73103;BME280;61294;65.988;29.172;2023-10-08T08:01:23;97308.03;;;0.57;100.00
73103;BME280;61294;65.988;29.172;2023-10-08T08:03:50;97306.34;;;0.61;100.00
73103;BME280;61294;65.988;29.172;2023-10-08T08:06:16;97281.19;;;0.54;100.00
73103;BME280;61294;65.988;29.172;2023-10-08T08:08:42;97298.75;;;0.75;100.00
73103;BME280;61294;65.988;29.172;2023-10-08T08:11:10;97309.94;;;0.74;100.00
73103;BME280;61294;65.988;29.172;2023-10-08T08:13:43;97312.75;;;0.92;100.00
73103;BME280;61294;65.988;29.172;2023-10-08T08:16:13;97303.25;;;0.91;100.00
73103;BME280;61294;65.988;29.172;2023-10-08T08:18:46;97325.75;;;0.95;100.00
73103;BME280;61294;65.988;29.172;2023-10-08T08:21:14;97323.91;;;0.85;100.00
73103;BME280;61294;65.988;29.172;2023-10-08T08:23:42;97307.38;;;0.77;100.00
73103;BME280;61294;65.988;29.172;2023-10-08T08:26:16;97322.06;;;0.75;100.00
73103;BME280;61294;65.988;29.172;2023-10-08T08:28:59;97329.94;;;0.82;100.00
73103;BME280;61294;65.988;29.172;2023-10-08T08:31:28;97303.78;;;0.65;100.00
73103;BME280;61294;65.988;29.172;2023-10-08T08:33:57;97297.59;;;0.54;100.00
73103;BME280;61294;65.988;29.172;2023-10-08T08:36:29;97339.59;;;0.93;100.00
73103;BME280;61294;65.988;29.172;2023-10-08T08:38:55;97332.66;;;0.93;100.00
73103;BME280;61294;65.988;29.172;2023-10-08T08:41:21;97337.78;;;0.87;100.00
73103;BME280;61294;65.988;29.172;2023-10-08T08:43:50;97337.03;;;0.96;100.00
73103;BME280;61294;65.988;29.172;2023-10-08T08:46:36;97344.66;;;0.85;100.00
73103;BME280;61294;65.988;29.172;2023-10-08T08:49:06;97343.88;;;0.92;100.00
73103;BME280;61294;65.988;29.172;2023-10-08T08:51:37;97339.81;;;1.13;100.00
73103;BME280;61294;65.988;29.172;2023-10-08T08:54:03;97344.50;;;1.46;100.00
73103;BME280;61294;65.988;29.172;2023-10-08T08:56:38;97349.97;;;1.76;100.00
73103;BME280;61294;65.988;29.172;2023-10-08T08:59:07;97350.81;;;1.71;100.00
73103;BME280;61294;65.988;29.172;2023-10-08T09:01:40;97351.81;;;1.90;100.00
73103;BME280;61294;65.988;29.172;2023-10-08T09:04:06;97318.72;;;1.65;100.00
73103;BME280;61294;65.988;29.172;2023-10-08T09:06:35;97374.78;;;1.47;100.00
73103;BME280;61294;65.988;29.172;2023-10-08T09:09:05;97351.09;;;1.16;100.00
73103;BME280;61294;65.988;29.172;2023-10-08T09:11:50;97360.72;;;1.28;100.00
73103;BME280;61294;65.988;29.172;2023-10-08T09:14:25;97353.00;;;1.33;100.00
73103;BME280;61294;65.988;29.172;2023-10-08T09:16:55;97372.00;;;1.29;100.00
73103;BME280;61294;65.988;29.172;2023-10-08T09:19:23;97372.78;;;1.23;100.00
73103;BME280;61294;65.988;29.172;2023-10-08T09:22:06;97372.63;;;1.11;100.00
73103;BME280;61294;65.988;29.172;2023-10-08T09:24:33;97388.97;;;1.03;100.00
73103;BME280;61294;65.988;29.172;2023-10-08T09:27:03;97386.41;;;1.05;100.00
73103;BME280;61294;65.988;29.172;2023-10-08T09:29:29;97381.19;;;1.03;100.00
73103;BME280;61294;65.988;29.172;2023-10-08T09:31:57;97385.63;;;1.12;100.00
73103;BME280;61294;65.988;29.172;2023-10-08T09:34:27;97386.28;;;0.96;100.00
73103;BME280;61294;65.988;29.172;2023-10-08T09:36:55;97395.13;;;1.12;100.00
73103;BME280;61294;65.988;29.172;2023-10-08T09:39:22;97402.06;;;1.13;100.00
73103;BME280;61294;65.988;29.172;2023-10-08T09:41:57;97398.50;;;1.05;100.00
73103;BME280;61294;65.988;29.172;2023-10-08T09:44:24;97380.41;;;1.09;100.00
73103;BME280;61294;65.988;29.172;2023-10-08T09:46:57;97391.72;;;1.16;100.00
73103;BME280;61294;65.988;29.172;2023-10-08T09:49:31;97384.06;;;1.28;100.00
73103;BME280;61294;65.988;29.172;2023-10-08T09:52:00;97393.78;;;1.43;100.00
73103;BME280;61294;65.988;29.172;2023-10-08T09:54:33;97404.03;;;1.34;100.00
73103;BME280;61294;65.988;29.172;2023-10-08T09:57:05;97400.78;;;1.50;100.00
73103;BME280;61294;65.988;29.172;2023-10-08T09:59:33;97399.72;;;1.34;100.00
73103;BME280;61294;65.988;29.172;2023-10-08T10:02:00;97390.97;;;1.26;100.00
73103;BME280;61294;65.988;29.172;2023-10-08T10:04:30;97398.00;;;1.35;100.00
73103;BME280;61294;65.988;29.172;2023-10-08T10:07:10;97393.78;;;1.45;100.00
73103;BME280;61294;65.988;29.172;2023-10-08T10:09:39;97414.81;;;1.69;100.00
73103;BME280;61294;65.988;29.172;2023-10-08T10:12:05;97419.78;;;1.51;100.00
73103;BME280;61294;65.988;29.172;2023-10-08T10:14:45;97405.09;;;1.48;100.00
73103;BME280;61294;65.988;29.172;2023-10-08T10:17:20;97416.69;;;1.83;100.00
73103;BME280;61294;65.988;29.172;2023-10-08T10:19:57;97408.97;;;1.90;100.00
73103;BME280;61294;65.988;29.172;2023-10-08T10:22:29;97416.88;;;2.03;100.00
73103;BME280;61294;65.988;29.172;2023-10-08T10:24:56;97412.47;;;1.94;100.00
73103;BME280;61294;65.988;29.172;2023-10-08T10:27:23;97390.63;;;1.75;100.00
73103;BME280;61294;65.988;29.172;2023-10-08T10:29:49;97415.94;;;1.95;100.00
73103;BME280;61294;65.988;29.172;2023-10-08T10:32:16;97428.09;;;2.00;100.00
73103;BME280;61294;65.988;29.172;2023-10-08T10:34:43;97396.94;;;2.02;100.00
73103;BME280;61294;65.988;29.172;2023-10-08T10:37:10;97422.25;;;2.24;100.00
73103;BME280;61294;65.988;29.172;2023-10-08T10:39:55;97427.44;;;2.20;100.00
73103;BME280;61294;65.988;29.172;2023-10-08T10:42:25;97430.03;;;2.21;100.00
73103;BME280;61294;65.988;29.172;2023-10-08T10:44:54;97422.03;;;1.97;100.00
73103;BME280;61294;65.988;29.172;2023-10-08T10:47:21;97431.63;;;2.04;100.00
73103;BME280;61294;65.988;29.172;2023-10-08T10:49:51;97396.97;;;2.06;100.00
73103;BME280;61294;65.988;29.172;2023-10-08T10:52:22;97399.84;;;2.36;100.00
73103;BME280;61294;65.988;29.172;2023-10-08T10:55:07;97430.22;;;2.45;100.00
73103;BME280;61294;65.988;29.172;2023-10-08T10:57:56;97436.16;;;2.28;100.00
73103;BME280;61294;65.988;29.172;2023-10-08T11:00:28;97442.06;;;2.12;100.00
73103;BME280;61294;65.988;29.172;2023-10-08T11:03:01;97425.47;;;1.94;100.00
73103;BME280;61294;65.988;29.172;2023-10-08T11:05:51;97440.91;;;1.82;100.00
73103;BME280;61294;65.988;29.172;2023-10-08T11:08:21;97418.88;;;1.46;100.00
73103;BME280;61294;65.988;29.172;2023-10-08T11:10:49;97427.50;;;1.43;100.00
73103;BME280;61294;65.988;29.172;2023-10-08T11:13:21;97452.69;;;1.52;100.00
73103;BME280;61294;65.988;29.172;2023-10-08T11:15:54;97418.63;;;1.24;100.00
73103;BME280;61294;65.988;29.172;2023-10-08T11:18:24;97421.94;;;1.14;100.00
73103;BME280;61294;65.988;29.172;2023-10-08T11:20:51;97402.69;;;0.95;100.00
73103;BME280;61294;65.988;29.172;2023-10-08T11:23:37;97443.66;;;1.22;100.00
73103;BME280;61294;65.988;29.172;2023-10-08T11:26:04;97443.59;;;1.16;100.00
73103;BME280;61294;65.988;29.172;2023-10-08T11:28:38;97467.81;;;1.16;100.00
73103;BME280;61294;65.988;29.172;2023-10-08T11:31:10;97431.16;;;0.90;100.00
73103;BME280;61294;65.988;29.172;2023-10-08T11:33:41;97461.53;;;1.00;100.00
73103;BME280;61294;65.988;29.172;2023-10-08T11:36:08;97455.38;;;0.92;100.00
73103;BME280;61294;65.988;29.172;2023-10-08T11:38:53;97466.69;;;0.97;100.00
73103;BME280;61294;65.988;29.172;2023-10-08T11:41:27;97465.94;;;1.05;100.00
73103;BME280;61294;65.988;29.172;2023-10-08T11:43:57;97461.47;;;0.94;100.00
73103;BME280;61294;65.988;29.172;2023-10-08T11:46:31;97462.53;;;1.09;100.00
73103;BME280;61294;65.988;29.172;2023-10-08T11:49:20;97460.94;;;1.18;100.00
73103;BME280;61294;65.988;29.172;2023-10-08T11:51:51;97433.72;;;0.89;100.00
73103;BME280;61294;65.988;29.172;2023-10-08T11:54:21;97424.97;;;0.80;100.00
73103;BME280;61294;65.988;29.172;2023-10-08T11:56:48;97469.25;;;0.94;100.00
73103;BME280;61294;65.988;29.172;2023-10-08T11:59:14;97468.38;;;0.95;100.00
73103;BME280;61294;65.988;29.172;2023-10-08T12:01:43;97432.84;;;0.88;100.00
73103;BME280;61294;65.988;29.172;2023-10-08T12:04:09;97467.56;;;0.99;100.00
73103;BME280;61294;65.988;29.172;2023-10-08T12:06:41;97464.91;;;0.93;100.00
73103;BME280;61294;65.988;29.172;2023-10-08T12:09:15;97465.97;;;1.08;100.00
73103;BME280;61294;65.988;29.172;2023-10-08T12:11:41;97458.00;;;0.94;100.00
73103;BME280;61294;65.988;29.172;2023-10-08T12:14:08;97444.88;;;0.83;100.00
73103;BME280;61294;65.988;29.172;2023-10-08T12:16:34;97477.88;;;0.93;100.00
73103;BME280;61294;65.988;29.172;2023-10-08T12:19:04;97456.03;;;0.76;100.00
73103;BME280;61294;65.988;29.172;2023-10-08T12:21:41;97482.75;;;0.73;100.00
73103;BME280;61294;65.988;29.172;2023-10-08T12:24:08;97481.88;;;0.73;100.00
73103;BME280;61294;65.988;29.172;2023-10-08T12:26:38;97480.97;;;0.71;100.00
73103;BME280;61294;65.988;29.172;2023-10-08T12:29:14;97492.09;;;0.63;100.00
73103;BME280;61294;65.988;29.172;2023-10-08T12:31:43;97488.50;;;0.55;100.00
73103;BME280;61294;65.988;29.172;2023-10-08T12:34:13;97485.16;;;0.62;100.00
73103;BME280;61294;65.988;29.172;2023-10-08T12:36:39;97481.88;;;0.73;100.00
73103;BME280;61294;65.988;29.172;2023-10-08T12:39:05;97482.50;;;0.58;100.00
73103;BME280;61294;65.988;29.172;2023-10-08T12:41:44;97485.00;;;0.50;100.00
73103;BME280;61294;65.988;29.172;2023-10-08T12:44:11;97455.44;;;0.39;100.00
73103;BME280;61294;65.988;29.172;2023-10-08T12:46:37;97484.91;;;0.47;100.00
73103;BME280;61294;65.988;29.172;2023-10-08T12:49:03;97430.97;;;0.21;100.00
73103;BME280;61294;65.988;29.172;2023-10-08T12:51:30;97492.66;;;0.45;100.00
73103;BME280;61294;65.988;29.172;2023-10-08T12:54:00;97500.59;;;0.53;100.00
73103;BME280;61294;65.988;29.172;2023-10-08T12:56:30;97511.81;;;0.54;100.00
73103;BME280;61294;65.988;29.172;2023-10-08T12:59:25;97461.28;;;0.28;100.00
73103;BME280;61294;65.988;29.172;2023-10-08T13:01:52;97462.03;;;0.21;100.00
73103;BME280;61294;65.988;29.172;2023-10-08T13:04:21;97495.19;;;0.41;100.00
73103;BME280;61294;65.988;29.172;2023-10-08T13:06:53;97505.28;;;0.25;100.00
73103;BME280;61294;65.988;29.172;2023-10-08T13:09:23;97502.06;;;0.37;100.00